createdAt,value
2023-03-06T00:00:12.270Z,100595.34
2023-03-06T00:02:38.937Z,100603.19
2023-03-06T00:05:06.033Z,100591.88
2023-03-06T00:07:32.734Z,100594.34
2023-03-06T00:09:59.497Z,100581.69
2023-03-06T00:12:27.624Z,100579.97
2023-03-06T00:14:55.241Z,100583.78
2023-03-06T00:17:21.983Z,100581.31
2023-03-06T00:19:48.811Z,100577.34
2023-03-06T00:22:16.103Z,100581.28
2023-03-06T00:24:44.452Z,100574.91
2023-03-06T00:27:11.147Z,100568.31
2023-03-06T00:29:37.850Z,100565.69
2023-03-06T00:32:06.599Z,100567.84
2023-03-06T00:34:33.903Z,100562.00
2023-03-06T00:37:00.564Z,100566.19
2023-03-06T00:39:27.344Z,100561.34
2023-03-06T00:41:54.211Z,100559.28
2023-03-06T00:44:20.847Z,100559.56
2023-03-06T00:46:47.584Z,100565.13
2023-03-06T00:49:14.216Z,100556.16
2023-03-06T00:51:40.900Z,100564.63
2023-03-06T00:54:08.337Z,100559.91
2023-03-06T00:56:35.036Z,100554.06
2023-03-06T00:59:02.020Z,100556.44
2023-03-06T01:01:29.502Z,100559.84
2023-03-06T01:03:56.169Z,100553.19
2023-03-06T01:06:23.128Z,100550.78
2023-03-06T01:08:49.824Z,100548.16
2023-03-06T01:11:17.580Z,100549.50
2023-03-06T01:13:44.635Z,100541.59
2023-03-06T01:16:15.467Z,100540.63
2023-03-06T01:18:42.564Z,100541.19
2023-03-06T01:21:09.280Z,100530.31
2023-03-06T01:23:35.977Z,100532.75
2023-03-06T01:26:02.981Z,100530.50
2023-03-06T01:28:29.920Z,100529.03
2023-03-06T01:30:58.172Z,100529.72
2023-03-06T01:33:25.585Z,100527.94
2023-03-06T01:35:52.351Z,100528.03
2023-03-06T01:38:19.096Z,100522.25
2023-03-06T01:40:46.018Z,100520.56
2023-03-06T01:43:25.892Z,100519.75
2023-03-06T01:45:53.037Z,100511.97
2023-03-06T01:48:22.502Z,100515.19
2023-03-06T01:50:51.149Z,100511.66
2023-03-06T01:53:18.756Z,100510.09
2023-03-06T01:55:45.574Z,100514.41
2023-03-06T01:58:15.008Z,100500.09
2023-03-06T02:00:41.912Z,100503.25
2023-03-06T02:03:15.070Z,100494.66
2023-03-06T02:05:43.042Z,100498.75
2023-03-06T02:08:11.727Z,100498.69
2023-03-06T02:10:43.220Z,100501.09
2023-03-06T02:13:10.127Z,100497.50
2023-03-06T02:15:38.089Z,100496.91
2023-03-06T02:18:04.808Z,100500.69
2023-03-06T02:20:34.846Z,100492.72
2023-03-06T02:23:08.070Z,100490.38
2023-03-06T02:25:40.724Z,100492.19
2023-03-06T02:28:12.774Z,100483.69
2023-03-06T02:30:41.701Z,100481.63
2023-03-06T02:33:13.820Z,100483.34
2023-03-06T02:35:44.239Z,100480.81
2023-03-06T02:38:14.693Z,100476.00
2023-03-06T02:40:44.008Z,100483.56
2023-03-06T02:43:12.574Z,100479.50
2023-03-06T02:45:45.198Z,100480.44
2023-03-06T02:48:13.643Z,100478.34
2023-03-06T02:50:41.201Z,100467.81
2023-03-06T02:53:08.414Z,100469.13
2023-03-06T02:55:35.633Z,100467.38
2023-03-06T02:58:03.674Z,100450.25
2023-03-06T03:00:31.408Z,100459.53
2023-03-06T03:03:00.433Z,100452.88
2023-03-06T03:05:27.242Z,100445.78
2023-03-06T03:07:59.767Z,100451.53
2023-03-06T03:10:27.898Z,100450.22
2023-03-06T03:12:54.909Z,100442.47
2023-03-06T03:15:23.212Z,100439.22
2023-03-06T03:17:49.849Z,100432.97
2023-03-06T03:20:18.905Z,100442.03
2023-03-06T03:22:55.069Z,100442.16
2023-03-06T03:25:23.901Z,100430.06
2023-03-06T03:27:51.663Z,100431.59
2023-03-06T03:30:19.692Z,100421.16
2023-03-06T03:32:46.492Z,100431.47
2023-03-06T03:35:13.514Z,100418.72
2023-03-06T03:37:41.088Z,100424.69
2023-03-06T03:40:10.261Z,100418.72
2023-03-06T03:42:37.181Z,100413.22
2023-03-06T03:45:05.439Z,100424.66
2023-03-06T03:47:32.282Z,100415.78
2023-03-06T03:50:00.133Z,100421.47
2023-03-06T03:52:26.874Z,100419.22
2023-03-06T03:54:53.648Z,100425.91
2023-03-06T03:57:20.640Z,100418.19
2023-03-06T03:59:50.918Z,100413.22
2023-03-06T04:02:25.573Z,100416.69
2023-03-06T04:05:15.857Z,100415.88
2023-03-06T04:07:43.219Z,100409.81
2023-03-06T04:10:11.699Z,100416.38
2023-03-06T04:12:38.946Z,100416.03
2023-03-06T04:15:07.830Z,100416.03
2023-03-06T04:17:35.652Z,100395.88
2023-03-06T04:20:05.742Z,100396.25
2023-03-06T04:22:33.465Z,100395.16
2023-03-06T04:25:00.731Z,100393.25
2023-03-06T04:27:27.560Z,100381.47
2023-03-06T04:29:56.330Z,100381.75
2023-03-06T04:32:24.069Z,100375.50
2023-03-06T04:34:51.347Z,100370.59
2023-03-06T04:37:23.540Z,100377.53
2023-03-06T04:39:51.067Z,100375.47
2023-03-06T04:42:18.543Z,100373.88
2023-03-06T04:44:45.669Z,100369.16
2023-03-06T04:47:12.651Z,100365.50
2023-03-06T04:49:39.370Z,100363.19
2023-03-06T04:52:06.353Z,100353.91
2023-03-06T04:54:33.872Z,100351.09
2023-03-06T04:57:00.875Z,100356.88
2023-03-06T04:59:27.503Z,100350.72
2023-03-06T05:01:54.314Z,100347.97
2023-03-06T05:04:21.065Z,100356.72
2023-03-06T05:06:47.849Z,100345.88
2023-03-06T05:09:14.531Z,100341.59
2023-03-06T05:11:41.282Z,100338.47
2023-03-06T05:14:08.020Z,100346.69
2023-03-06T05:16:34.732Z,100350.59
2023-03-06T05:19:01.475Z,100349.69
2023-03-06T05:21:28.274Z,100353.81
2023-03-06T05:23:54.941Z,100354.06
2023-03-06T05:26:21.682Z,100348.88
2023-03-06T05:28:48.553Z,100352.75
2023-03-06T05:31:15.402Z,100345.78
2023-03-06T05:33:42.246Z,100342.69
2023-03-06T05:36:10.032Z,100340.25
2023-03-06T05:38:36.676Z,100341.31
2023-03-06T05:41:03.491Z,100337.44
2023-03-06T05:43:30.143Z,100344.72
2023-03-06T05:46:02.546Z,100341.59
2023-03-06T05:48:29.554Z,100347.53
2023-03-06T05:51:00.259Z,100349.78
2023-03-06T05:53:27.118Z,100346.16
2023-03-06T05:56:03.967Z,100349.53
2023-03-06T05:58:32.877Z,100346.31
2023-03-06T06:01:00.460Z,100361.66
2023-03-06T06:03:27.535Z,100358.06
2023-03-06T06:05:54.255Z,100352.78
2023-03-06T06:08:21.205Z,100348.63
2023-03-06T06:10:47.914Z,100341.31
2023-03-06T06:13:14.851Z,100342.59
2023-03-06T06:15:41.675Z,100345.66
2023-03-06T06:18:08.503Z,100345.16
2023-03-06T06:20:37.684Z,100338.94
2023-03-06T06:23:04.867Z,100340.59
2023-03-06T06:25:32.015Z,100344.31
2023-03-06T06:27:58.714Z,100346.63
2023-03-06T06:30:25.484Z,100340.84
2023-03-06T06:32:52.310Z,100341.59
2023-03-06T06:35:19.080Z,100340.81
2023-03-06T06:37:45.805Z,100336.03
2023-03-06T06:40:12.770Z,100344.78
2023-03-06T06:42:40.371Z,100343.53
2023-03-06T06:45:09.675Z,100348.06
2023-03-06T06:47:41.062Z,100356.94
2023-03-06T06:50:15.018Z,100350.13
2023-03-06T06:52:41.931Z,100351.84
2023-03-06T06:55:09.789Z,100351.34
2023-03-06T06:57:36.598Z,100357.59
2023-03-06T07:00:04.838Z,100351.63
2023-03-06T07:02:32.337Z,100351.94
2023-03-06T07:05:06.104Z,100345.47
2023-03-06T07:07:37.282Z,100346.63
2023-03-06T07:10:07.989Z,100347.78
2023-03-06T07:12:35.218Z,100349.06
2023-03-06T07:15:02.642Z,100346.50
2023-03-06T07:17:31.663Z,100348.28
2023-03-06T07:19:59.591Z,100353.59
2023-03-06T07:22:26.436Z,100346.19
2023-03-06T07:24:53.107Z,100342.81
2023-03-06T07:27:19.985Z,100348.22
2023-03-06T07:29:46.844Z,100345.72
2023-03-06T07:32:13.883Z,100347.41
2023-03-06T07:34:40.681Z,100346.00
2023-03-06T07:37:07.428Z,100348.78
2023-03-06T07:39:34.088Z,100343.59
2023-03-06T07:42:00.817Z,100342.59
2023-03-06T07:44:27.654Z,100341.63
2023-03-06T07:46:54.429Z,100340.69
2023-03-06T07:49:21.542Z,100333.66
2023-03-06T07:51:48.289Z,100332.09
2023-03-06T07:54:14.949Z,100338.47
2023-03-06T07:56:43.731Z,100338.53
2023-03-06T07:59:11.938Z,100336.28
2023-03-06T08:01:40.305Z,100344.31
2023-03-06T08:04:10.356Z,100337.03
2023-03-06T08:06:37.278Z,100338.44
2023-03-06T08:09:04.281Z,100331.59
2023-03-06T08:11:31.469Z,100338.28
2023-03-06T08:13:59.754Z,100342.06
2023-03-06T08:16:29.577Z,100344.88
2023-03-06T08:18:56.974Z,100340.97
2023-03-06T08:21:26.222Z,100341.91
2023-03-06T08:23:53.201Z,100345.13
2023-03-06T08:26:22.639Z,100347.34
2023-03-06T08:28:51.292Z,100344.25
2023-03-06T08:31:18.068Z,100343.03
2023-03-06T08:33:45.418Z,100340.41
2023-03-06T08:36:12.113Z,100333.72
2023-03-06T08:38:38.877Z,100331.25
2023-03-06T08:41:05.666Z,100346.53
2023-03-06T08:43:32.477Z,100350.63
2023-03-06T08:45:59.391Z,100349.09
2023-03-06T08:48:26.286Z,100348.16
2023-03-06T08:50:54.300Z,100349.88
2023-03-06T08:53:22.715Z,100346.75
2023-03-06T08:55:54.855Z,100338.59
2023-03-06T08:58:24.543Z,100348.44
2023-03-06T09:00:52.036Z,100347.44
2023-03-06T09:03:19.757Z,100352.38
2023-03-06T09:05:46.579Z,100345.44
2023-03-06T09:08:13.331Z,100353.03
2023-03-06T09:10:40.160Z,100353.28
2023-03-06T09:13:12.079Z,100351.09
2023-03-06T09:15:39.163Z,100348.31
2023-03-06T09:18:05.816Z,100353.91
2023-03-06T09:20:32.541Z,100348.13
2023-03-06T09:22:59.225Z,100347.69
2023-03-06T09:25:26.058Z,100350.84
2023-03-06T09:28:08.716Z,100357.25
2023-03-06T09:30:40.674Z,100353.03
2023-03-06T09:33:07.967Z,100349.09
2023-03-06T09:35:34.976Z,100347.59
2023-03-06T09:38:02.859Z,100360.09
2023-03-06T09:40:58.781Z,100349.53
2023-03-06T09:43:39.480Z,100352.22
2023-03-06T09:46:53.361Z,100353.06
2023-03-06T09:49:40.376Z,100353.41
2023-03-06T09:52:38.690Z,100351.97
2023-03-06T09:55:18.988Z,100352.25
2023-03-06T09:57:55.107Z,100358.66
2023-03-06T10:00:31.026Z,100352.63
2023-03-06T10:03:06.036Z,100356.56
2023-03-06T10:05:40.357Z,100344.44
2023-03-06T10:08:31.062Z,100351.47
2023-03-06T10:11:01.974Z,100348.72
2023-03-06T10:13:54.549Z,100344.00
2023-03-06T10:16:32.522Z,100348.16
2023-03-06T10:19:05.432Z,100343.84
2023-03-06T10:21:53.478Z,100341.00
2023-03-06T10:24:50.734Z,100338.31
2023-03-06T10:27:38.773Z,100328.53
2023-03-06T10:30:26.988Z,100330.91
2023-03-06T10:32:58.688Z,100327.66
2023-03-06T10:35:30.769Z,100334.22
2023-03-06T10:38:01.347Z,100334.69
2023-03-06T10:40:36.283Z,100334.88
2023-03-06T10:43:11.476Z,100330.63
2023-03-06T10:45:50.989Z,100329.06
2023-03-06T10:48:21.252Z,100327.75
2023-03-06T10:50:48.606Z,100328.56
2023-03-06T10:53:26.661Z,100322.69
2023-03-06T10:55:59.016Z,100328.72
2023-03-06T10:58:28.397Z,100337.50
2023-03-06T11:01:07.302Z,100331.41
2023-03-06T11:03:35.598Z,100329.47
2023-03-06T11:06:05.209Z,100336.22
2023-03-06T11:08:32.703Z,100322.03
2023-03-06T11:11:04.833Z,100321.72
2023-03-06T11:13:35.075Z,100330.16
2023-03-06T11:16:15.395Z,100326.00
2023-03-06T11:18:58.716Z,100321.13
2023-03-06T11:21:31.287Z,100316.25
2023-03-06T11:24:17.530Z,100308.56
2023-03-06T11:26:48.493Z,100307.78
2023-03-06T11:29:35.771Z,100303.31
2023-03-06T11:32:15.152Z,100301.41
2023-03-06T11:34:50.394Z,100300.22
2023-03-06T11:37:37.666Z,100294.25
2023-03-06T11:40:10.870Z,100292.16
2023-03-06T11:42:40.923Z,100295.50
2023-03-06T11:45:31.903Z,100289.34
2023-03-06T11:48:10.683Z,100281.44
2023-03-06T11:50:54.408Z,100277.09
2023-03-06T11:53:35.625Z,100278.53
2023-03-06T11:56:31.827Z,100268.81
2023-03-06T11:59:17.432Z,100268.03
2023-03-06T12:02:02.976Z,100271.09
2023-03-06T12:05:11.802Z,100254.66
2023-03-06T12:08:00.406Z,100252.44
2023-03-06T12:10:38.275Z,100258.00
2023-03-06T12:13:20.713Z,100257.41
2023-03-06T12:16:22.951Z,100259.34
2023-03-06T12:18:58.744Z,100254.19
2023-03-06T12:21:37.582Z,100255.75
2023-03-06T12:24:22.617Z,100251.13
2023-03-06T12:27:13.514Z,100253.44
2023-03-06T12:29:47.829Z,100249.72
2023-03-06T12:32:39.744Z,100250.09
2023-03-06T12:35:37.220Z,100243.22
2023-03-06T12:38:06.798Z,100236.66
2023-03-06T12:41:02.997Z,100230.44
2023-03-06T12:43:39.543Z,100231.94
2023-03-06T12:46:14.410Z,100227.50
2023-03-06T12:48:44.264Z,100230.44
2023-03-06T12:51:13.833Z,100229.94
2023-03-06T12:53:41.267Z,100230.13
2023-03-06T12:56:08.354Z,100217.97
2023-03-06T12:58:36.603Z,100219.59
2023-03-06T13:01:08.956Z,100216.13
2023-03-06T13:04:08.008Z,100205.88
2023-03-06T13:07:00.570Z,100210.97
2023-03-06T13:09:48.847Z,100208.09
2023-03-06T13:12:26.071Z,100210.59
2023-03-06T13:14:55.291Z,100198.72
2023-03-06T13:17:25.086Z,100206.16
2023-03-06T13:20:13.755Z,100215.03
2023-03-06T13:22:41.882Z,100203.94
2023-03-06T13:25:21.056Z,100203.81
2023-03-06T13:28:03.228Z,100193.50
2023-03-06T13:30:39.048Z,100200.56
2023-03-06T13:33:24.973Z,100192.66
2023-03-06T13:35:57.693Z,100199.03
2023-03-06T13:38:36.896Z,100201.38
2023-03-06T13:41:22.407Z,100189.03
2023-03-06T13:43:56.783Z,100189.50
2023-03-06T13:46:29.973Z,100197.16
2023-03-06T13:49:07.974Z,100190.84
2023-03-06T13:51:53.070Z,100183.22
2023-03-06T13:54:32.117Z,100177.09
2023-03-06T13:57:17.785Z,100179.81
2023-03-06T14:00:08.729Z,100172.31
2023-03-06T14:03:05.311Z,100179.69
2023-03-06T14:05:47.274Z,100170.13
2023-03-06T14:08:16.061Z,100176.47
2023-03-06T14:10:44.441Z,100168.50
2023-03-06T14:13:23.874Z,100163.47
2023-03-06T14:15:52.785Z,100154.59
2023-03-06T14:18:23.831Z,100149.69
2023-03-06T14:20:59.721Z,100148.78
2023-03-06T14:23:42.735Z,100152.09
2023-03-06T14:26:18.295Z,100151.25
2023-03-06T14:28:54.062Z,100144.03
2023-03-06T14:31:23.883Z,100140.16
2023-03-06T14:33:56.470Z,100141.34
2023-03-06T14:36:30.965Z,100144.00
2023-03-06T14:39:01.457Z,100127.84
2023-03-06T14:41:35.814Z,100129.78
2023-03-06T14:44:12.026Z,100122.91
2023-03-06T14:46:38.791Z,100120.28
2023-03-06T14:49:08.864Z,100120.03
2023-03-06T14:51:46.542Z,100112.09
2023-03-06T14:54:19.679Z,100120.72
2023-03-06T14:56:49.127Z,100111.88
2023-03-06T14:59:19.473Z,100116.16
2023-03-06T15:01:49.504Z,100100.84
2023-03-06T15:04:41.258Z,100110.66
2023-03-06T15:07:14.811Z,100111.34
2023-03-06T15:09:46.358Z,100100.34
2023-03-06T15:12:21.233Z,100099.41
2023-03-06T15:14:59.714Z,100090.44
2023-03-06T15:17:30.685Z,100083.44
2023-03-06T15:20:01.024Z,100085.75
2023-03-06T15:22:33.898Z,100084.47
2023-03-06T15:25:27.646Z,100074.78
2023-03-06T15:27:57.089Z,100067.75
2023-03-06T15:30:25.140Z,100076.25
2023-03-06T15:32:52.185Z,100083.50
2023-03-06T15:35:29.527Z,100080.78
2023-03-06T15:37:57.500Z,100074.50
2023-03-06T15:40:34.846Z,100064.69
2023-03-06T15:43:02.889Z,100065.28
2023-03-06T15:45:35.788Z,100055.28
2023-03-06T15:48:02.917Z,100051.53
2023-03-06T15:50:36.205Z,100053.97
2023-03-06T15:53:03.104Z,100059.13
2023-03-06T15:55:29.903Z,100058.72
2023-03-06T15:58:02.155Z,100049.53
2023-03-06T16:00:32.741Z,100041.56
2023-03-06T16:03:00.525Z,100044.00
2023-03-06T16:05:28.100Z,100053.97
2023-03-06T16:07:56.905Z,100052.56
2023-03-06T16:10:35.750Z,100047.84
2023-03-06T16:13:06.839Z,100044.47
2023-03-06T16:15:48.080Z,100039.09
2023-03-06T16:18:15.106Z,100038.47
2023-03-06T16:20:42.516Z,100039.13
2023-03-06T16:23:10.893Z,100035.59
2023-03-06T16:25:40.010Z,100036.06
2023-03-06T16:28:12.037Z,100035.66
2023-03-06T16:30:38.986Z,100015.50
2023-03-06T16:33:06.430Z,100024.19
2023-03-06T16:35:36.523Z,100020.25
2023-03-06T16:38:03.379Z,100025.56
2023-03-06T16:40:43.778Z,100027.78
2023-03-06T16:43:13.961Z,100018.41
2023-03-06T16:45:42.566Z,100011.34
2023-03-06T16:48:21.316Z,100008.97
2023-03-06T16:50:49.681Z,100005.91
2023-03-06T16:53:17.399Z,99993.19
2023-03-06T16:55:45.472Z,99981.03
2023-03-06T16:58:12.555Z,99996.16
2023-03-06T17:00:39.350Z,100000.41
2023-03-06T17:03:06.656Z,99987.59
2023-03-06T17:05:37.293Z,99985.63
2023-03-06T17:08:07.086Z,99987.41
2023-03-06T17:10:39.104Z,99996.91
2023-03-06T17:13:08.082Z,99996.56
2023-03-06T17:15:38.028Z,99983.88
2023-03-06T17:18:06.151Z,99983.28
2023-03-06T17:20:39.579Z,99980.84
2023-03-06T17:23:07.638Z,99966.09
2023-03-06T17:25:35.931Z,99962.63
2023-03-06T17:28:04.436Z,99975.97
2023-03-06T17:30:31.432Z,99979.75
2023-03-06T17:33:00.448Z,99976.63
2023-03-06T17:35:41.761Z,99975.31
2023-03-06T17:38:10.140Z,99978.47
2023-03-06T17:40:37.655Z,99970.81
2023-03-06T17:43:05.502Z,99964.97
2023-03-06T17:45:42.097Z,99972.91
2023-03-06T17:48:10.715Z,99966.16
2023-03-06T17:50:37.467Z,99951.84
2023-03-06T17:53:04.425Z,99966.63
2023-03-06T17:55:32.538Z,99956.94
2023-03-06T17:58:00.271Z,99959.66
2023-03-06T18:00:30.564Z,99969.31
2023-03-06T18:03:00.957Z,99971.25
2023-03-06T18:05:30.804Z,99972.81
2023-03-06T18:08:01.357Z,99967.25
2023-03-06T18:10:28.313Z,99968.22
2023-03-06T18:12:58.606Z,99972.94
2023-03-06T18:15:25.618Z,99961.53
2023-03-06T18:17:54.999Z,99967.91
2023-03-06T18:20:25.424Z,99965.38
2023-03-06T18:22:52.297Z,99966.91
2023-03-06T18:25:19.253Z,99966.78
2023-03-06T18:27:46.471Z,99960.38
2023-03-06T18:30:14.461Z,99963.97
2023-03-06T18:32:41.321Z,99962.38
2023-03-06T18:35:09.499Z,99963.06
2023-03-06T18:37:36.331Z,99960.84
2023-03-06T18:40:03.141Z,99970.72
2023-03-06T18:42:29.951Z,99961.75
2023-03-06T18:44:56.659Z,99960.19
2023-03-06T18:47:23.732Z,99961.34
2023-03-06T18:49:50.750Z,99947.81
2023-03-06T18:52:17.535Z,99950.38
2023-03-06T18:54:44.990Z,99946.69
2023-03-06T18:57:11.833Z,99938.81
2023-03-06T18:59:38.521Z,99937.84
2023-03-06T19:02:05.277Z,99941.63
2023-03-06T19:04:32.076Z,99932.00
2023-03-06T19:06:58.905Z,99939.09
2023-03-06T19:09:25.848Z,99927.38
2023-03-06T19:11:54.765Z,99933.00
2023-03-06T19:14:21.751Z,99921.34
2023-03-06T19:16:48.536Z,99923.50
2023-03-06T19:19:15.304Z,99917.22
2023-03-06T19:21:42.583Z,99909.91
2023-03-06T19:24:14.003Z,99903.72
2023-03-06T19:26:41.893Z,99910.28
2023-03-06T19:29:08.728Z,99908.81
2023-03-06T19:31:35.565Z,99906.66
2023-03-06T19:34:02.322Z,99904.31
2023-03-06T19:36:33.670Z,99897.97
2023-03-06T19:39:03.262Z,99892.75
2023-03-06T19:41:30.571Z,99894.94
2023-03-06T19:44:00.424Z,99899.69
2023-03-06T19:46:27.998Z,99887.50
2023-03-06T19:48:56.648Z,99876.84
2023-03-06T19:51:23.885Z,99891.00
2023-03-06T19:53:51.813Z,99894.78
2023-03-06T19:56:26.041Z,99874.97
2023-03-06T19:58:56.643Z,99888.38
2023-03-06T20:01:25.700Z,99867.00
2023-03-06T20:04:00.198Z,99875.13
2023-03-06T20:06:37.696Z,99880.97
2023-03-06T20:09:18.255Z,99866.63
2023-03-06T20:12:01.765Z,99865.16
2023-03-06T20:14:28.836Z,99863.41
2023-03-06T20:16:55.631Z,99851.44
2023-03-06T20:19:22.424Z,99861.50
2023-03-06T20:21:49.421Z,99857.69
2023-03-06T20:24:17.876Z,99841.38
2023-03-06T20:26:46.039Z,99846.91
2023-03-06T20:29:13.570Z,99850.09
2023-03-06T20:31:40.817Z,99848.34
2023-03-06T20:34:08.148Z,99838.69
2023-03-06T20:36:37.648Z,99840.19
2023-03-06T20:39:09.124Z,99839.63
2023-03-06T20:41:36.030Z,99834.78
2023-03-06T20:44:04.375Z,99844.38
2023-03-06T20:46:31.631Z,99834.72
2023-03-06T20:49:01.999Z,99825.41
2023-03-06T20:51:31.902Z,99824.41
2023-03-06T20:53:59.561Z,99835.66
2023-03-06T20:56:29.223Z,99820.13
2023-03-06T20:58:57.028Z,99818.03
2023-03-06T21:01:30.169Z,99822.34
2023-03-06T21:03:58.250Z,99821.25
2023-03-06T21:06:26.386Z,99815.09
2023-03-06T21:08:57.713Z,99810.25
2023-03-06T21:11:24.494Z,99819.97
2023-03-06T21:13:52.581Z,99819.03
2023-03-06T21:16:20.984Z,99810.84
2023-03-06T21:18:48.250Z,99809.59
2023-03-06T21:24:21.412Z,99806.69
2023-03-06T21:26:48.623Z,99803.47
2023-03-06T21:29:15.345Z,99795.69
2023-03-06T21:31:42.368Z,99804.88
2023-03-06T21:34:14.163Z,99797.47
2023-03-06T21:36:40.948Z,99798.03
2023-03-06T21:39:07.803Z,99789.31
2023-03-06T21:41:34.816Z,99797.72
2023-03-06T21:44:04.526Z,99790.66
2023-03-06T21:46:31.909Z,99778.31
2023-03-06T21:48:59.286Z,99788.09
2023-03-06T21:51:31.435Z,99789.13
2023-03-06T21:54:09.073Z,99789.72
2023-03-06T21:57:01.320Z,99799.88
2023-03-06T21:59:28.846Z,99789.53
2023-03-06T22:01:55.632Z,99792.50
2023-03-06T22:04:22.914Z,99789.47
2023-03-06T22:06:50.067Z,99787.03
2023-03-06T22:09:19.274Z,99778.09
2023-03-06T22:11:48.826Z,99780.84
2023-03-06T22:14:15.773Z,99769.63
2023-03-06T22:16:42.552Z,99783.06
2023-03-06T22:19:09.318Z,99769.72
2023-03-06T22:21:36.263Z,99774.13
2023-03-06T22:24:03.195Z,99767.06
2023-03-06T22:26:30.238Z,99769.38
2023-03-06T22:28:57.889Z,99767.53
2023-03-06T22:31:29.093Z,99756.72
2023-03-06T22:33:57.792Z,99760.97
2023-03-06T22:36:25.198Z,99766.69
2023-03-06T22:38:57.919Z,99757.03
2023-03-06T22:41:28.943Z,99771.81
2023-03-06T22:43:57.335Z,99758.03
2023-03-06T22:46:24.436Z,99754.06
2023-03-06T22:48:51.346Z,99761.84
2023-03-06T22:51:20.119Z,99756.56
2023-03-06T22:53:47.940Z,99750.22
2023-03-06T22:56:18.521Z,99756.88
2023-03-06T22:58:46.034Z,99738.44
2023-03-06T23:01:15.463Z,99744.38
2023-03-06T23:03:46.732Z,99745.97
2023-03-06T23:06:20.191Z,99732.34
2023-03-06T23:08:58.554Z,99743.72
2023-03-06T23:11:27.824Z,99736.91
2023-03-06T23:14:13.722Z,99745.47
2023-03-06T23:16:59.482Z,99736.56
2023-03-06T23:19:45.028Z,99736.44
2023-03-06T23:22:30.704Z,99740.41
2023-03-06T23:25:16.528Z,99746.44
2023-03-06T23:27:43.358Z,99724.38
2023-03-06T23:30:10.737Z,99731.28
2023-03-06T23:32:37.559Z,99732.66
2023-03-06T23:35:04.678Z,99736.34
2023-03-06T23:37:31.370Z,99733.13
2023-03-06T23:39:58.344Z,99732.03
2023-03-06T23:42:24.988Z,99734.69
2023-03-06T23:44:51.784Z,99730.47
2023-03-06T23:47:20.082Z,99734.78
2023-03-06T23:49:46.998Z,99722.97
2023-03-06T23:52:13.872Z,99729.50
2023-03-06T23:54:40.747Z,99730.75
2023-03-06T23:57:07.682Z,99733.91
2023-03-06T23:59:34.429Z,99728.19
